createdAt,value
2018-10-01T05:14:55.544Z,4.87
2018-10-01T05:17:27.893Z,4.97
2018-10-01T05:20:00.301Z,4.47
2018-10-01T05:22:32.736Z,5.17
2018-10-01T05:25:05.145Z,5.13
2018-10-01T05:27:37.538Z,4.97
2018-10-01T05:30:10.022Z,4.93
2018-10-01T05:32:42.415Z,4.93
2018-10-01T05:35:14.829Z,4.70
2018-10-01T05:37:47.235Z,4.70
2018-10-01T05:40:19.636Z,4.83
2018-10-01T05:42:52.029Z,4.80
2018-10-01T05:45:24.463Z,5.07
2018-10-01T05:47:56.865Z,4.50
2018-10-01T05:50:29.290Z,4.60
2018-10-01T05:53:01.750Z,5.10
2018-10-01T05:55:34.182Z,4.37
2018-10-01T05:58:06.610Z,3.87
2018-10-01T06:00:38.981Z,4.73
2018-10-01T06:03:11.433Z,4.23
2018-10-01T06:05:43.886Z,4.33
2018-10-01T06:08:16.295Z,4.63
2018-10-01T06:10:48.925Z,3.97
2018-10-01T06:13:21.337Z,4.30
2018-10-01T06:15:53.750Z,3.83
2018-10-01T06:18:26.394Z,4.20
2018-10-01T06:20:58.806Z,3.80
2018-10-01T06:23:31.217Z,4.07
2018-10-01T06:26:03.641Z,3.90
2018-10-01T06:28:36.042Z,3.93
2018-10-01T06:31:08.454Z,3.53
2018-10-01T06:33:40.875Z,3.70
2018-10-01T06:36:13.168Z,3.17
2018-10-01T06:38:45.515Z,3.90
2018-10-01T06:41:17.925Z,3.73
2018-10-01T06:43:50.326Z,3.77
2018-10-01T06:46:22.757Z,3.40
2018-10-01T06:48:55.157Z,3.60
2018-10-01T06:51:27.566Z,3.70
2018-10-01T06:53:59.953Z,3.50
2018-10-01T06:56:32.690Z,3.60
2018-10-01T06:59:05.606Z,3.57
2018-10-01T07:01:38.021Z,3.60
2018-10-01T07:04:10.733Z,3.20
2018-10-01T07:06:43.150Z,3.20
2018-10-01T07:09:15.543Z,3.20
2018-10-01T07:11:47.965Z,3.80
2018-10-01T07:14:21.233Z,3.70
2018-10-01T07:16:53.691Z,2.97
2018-10-01T07:19:26.150Z,3.40
2018-10-01T07:21:58.564Z,2.90
2018-10-01T07:24:30.967Z,2.73
2018-10-01T07:27:03.383Z,2.57
2018-10-01T07:29:35.777Z,2.33
2018-10-01T07:32:08.189Z,2.20
2018-10-01T07:34:40.587Z,2.30
2018-10-01T07:37:12.982Z,3.10
2018-10-01T07:39:45.396Z,2.80
2018-10-01T07:42:17.797Z,2.77
2018-10-01T07:44:50.242Z,3.10
2018-10-01T07:47:22.621Z,2.50
2018-10-01T07:49:55.038Z,2.10
2018-10-01T07:52:27.462Z,2.13
2018-10-01T07:54:59.862Z,2.13
2018-10-01T07:57:32.359Z,2.13
2018-10-01T08:00:04.966Z,2.00
2018-10-01T08:02:37.152Z,2.20
2018-10-01T08:05:09.508Z,1.87
2018-10-01T08:07:41.938Z,2.63
2018-10-01T08:10:14.327Z,2.00
2018-10-01T08:12:46.759Z,1.90
2018-10-01T08:15:19.239Z,2.10
2018-10-01T08:17:51.658Z,2.07
2018-10-01T08:20:24.137Z,2.53
2018-10-01T08:22:56.474Z,2.43
2018-10-01T08:25:28.878Z,2.03
2018-10-01T08:28:01.303Z,1.93
2018-10-01T08:30:33.690Z,2.00
2018-10-01T08:33:06.102Z,1.50
2018-10-01T08:35:38.552Z,1.87
2018-10-01T08:38:11.039Z,2.10
2018-10-01T08:40:43.328Z,1.70
2018-10-01T08:43:15.727Z,2.00
2018-10-01T08:45:48.126Z,1.70
2018-10-01T08:48:20.534Z,2.10
2018-10-01T08:50:52.962Z,2.13
2018-10-01T08:53:25.427Z,1.70
2018-10-01T08:55:57.794Z,1.43
2018-10-01T08:58:30.202Z,2.10
2018-10-01T09:01:02.669Z,1.80
2018-10-01T09:03:35.022Z,1.87
2018-10-01T09:06:08.003Z,1.70
2018-10-01T09:08:40.398Z,1.70
2018-10-01T09:11:12.843Z,1.50
2018-10-01T09:13:45.238Z,2.43
2018-10-01T09:16:17.621Z,1.67
2018-10-01T09:18:50.059Z,1.60
2018-10-01T09:21:22.519Z,1.40
2018-10-01T09:23:54.890Z,1.60
2018-10-01T09:26:27.339Z,1.80
2018-10-01T09:28:59.740Z,1.70
2018-10-01T09:31:32.130Z,1.87
2018-10-01T09:34:04.526Z,1.60
2018-10-01T09:36:36.958Z,1.90
2018-10-01T09:39:09.345Z,1.60
2018-10-01T09:41:41.774Z,1.63
2018-10-01T09:44:14.217Z,1.57
2018-10-01T09:46:46.609Z,1.77
2018-10-01T09:49:19.002Z,1.53
2018-10-01T09:51:51.419Z,1.73
2018-10-01T09:54:23.850Z,2.07
2018-10-01T09:56:56.267Z,1.60
2018-10-01T09:59:28.657Z,1.67
2018-10-01T10:02:01.085Z,1.20
2018-10-01T10:04:33.574Z,1.63
2018-10-01T10:07:05.874Z,1.53
2018-10-01T10:09:38.293Z,1.60
2018-10-01T10:12:10.691Z,1.33
2018-10-01T10:14:43.239Z,1.50
2018-10-01T10:17:15.633Z,1.37
2018-10-01T10:19:48.039Z,1.70
2018-10-01T10:22:20.515Z,1.50
2018-10-01T10:24:52.864Z,1.70
2018-10-01T10:27:25.277Z,1.30
2018-10-01T10:29:57.984Z,2.00
2018-10-01T10:32:30.447Z,1.30
2018-10-01T10:35:02.806Z,2.00
2018-10-01T10:37:35.968Z,1.63
2018-10-01T10:40:08.405Z,1.30
2018-10-01T10:42:40.885Z,1.43
2018-10-01T10:45:13.277Z,1.40
2018-10-01T10:47:45.971Z,1.77
2018-10-01T10:50:18.438Z,2.00
2018-10-01T10:52:50.777Z,1.70
2018-10-01T10:55:23.174Z,1.50
2018-10-01T10:57:55.624Z,1.80
2018-10-01T11:00:28.009Z,1.83
2018-10-01T11:03:00.418Z,1.37
2018-10-01T11:05:32.829Z,1.50
2018-10-01T11:08:05.287Z,1.30
2018-10-01T11:10:37.752Z,1.50
2018-10-01T11:13:10.195Z,1.50
2018-10-01T11:15:42.614Z,1.30
2018-10-01T11:18:15.071Z,1.47
2018-10-01T11:20:47.479Z,1.40
2018-10-01T11:23:19.866Z,1.83
2018-10-01T11:25:52.266Z,1.40
2018-10-01T11:28:24.689Z,1.23
2018-10-01T11:30:57.309Z,1.60
2018-10-01T11:33:29.749Z,1.77
2018-10-01T11:36:02.153Z,1.43
2018-10-01T11:38:34.555Z,1.53
2018-10-01T11:41:06.966Z,1.40
2018-10-01T11:43:39.370Z,1.43
2018-10-01T11:46:11.778Z,1.33
2018-10-01T11:48:44.233Z,1.27
2018-10-01T11:51:16.743Z,1.40
2018-10-01T11:53:49.054Z,1.33
2018-10-01T11:56:21.455Z,1.20
2018-10-01T11:58:53.866Z,1.40
2018-10-01T12:01:26.599Z,1.00
2018-10-01T12:03:59.027Z,1.20
2018-10-01T12:06:31.439Z,1.30
2018-10-01T12:09:07.154Z,1.10
2018-10-01T12:11:39.553Z,1.40
2018-10-01T12:14:11.988Z,1.10
2018-10-01T12:16:44.381Z,1.00
2018-10-01T12:19:16.807Z,0.93
2018-10-01T12:21:49.362Z,0.90
2018-10-01T12:24:21.621Z,0.90
2018-10-01T12:26:54.028Z,0.83
2018-10-01T12:29:33.201Z,1.10
2018-10-01T12:32:05.792Z,0.83
2018-10-01T12:34:38.201Z,1.00
2018-10-01T12:37:10.597Z,1.20
2018-10-01T12:39:43.098Z,1.20
2018-10-01T12:42:16.417Z,1.00
2018-10-01T12:44:48.855Z,1.20
2018-10-01T12:47:21.258Z,1.47
2018-10-01T12:49:53.677Z,1.50
2018-10-01T12:52:26.129Z,1.70
2018-10-01T12:54:58.729Z,1.50
2018-10-01T12:57:31.245Z,1.73
2018-10-01T13:00:03.598Z,1.70
2018-10-01T13:02:36.043Z,1.60
2018-10-01T13:05:08.500Z,1.70
2018-10-01T13:07:40.914Z,1.70
2018-10-01T13:10:13.343Z,1.60
2018-10-01T13:12:45.846Z,1.90
2018-10-01T13:15:18.240Z,2.00
2018-10-01T13:17:50.645Z,1.93
2018-10-01T13:20:23.084Z,2.23
2018-10-01T13:22:55.500Z,2.10
2018-10-01T13:25:28.145Z,1.97
2018-10-01T13:28:00.568Z,2.13
2018-10-01T13:30:33.106Z,1.93
2018-10-01T13:33:05.546Z,1.57
2018-10-01T13:35:37.970Z,1.70
2018-10-01T13:38:10.379Z,2.00
2018-10-01T13:40:42.788Z,1.60
2018-10-01T13:43:15.222Z,1.90
2018-10-01T13:45:47.651Z,1.83
2018-10-01T13:48:20.128Z,1.80
2018-10-01T13:50:52.746Z,1.90
2018-10-01T13:53:25.151Z,1.70
2018-10-01T13:55:57.565Z,1.93
2018-10-01T13:58:29.972Z,2.37
2018-10-01T14:01:02.390Z,1.70
2018-10-01T14:03:34.785Z,1.70
2018-10-01T14:06:07.274Z,2.10
2018-10-01T14:08:39.666Z,2.00
2018-10-01T14:11:12.070Z,2.00
2018-10-01T14:13:44.508Z,2.13
2018-10-01T14:16:16.902Z,2.70
2018-10-01T14:18:49.312Z,2.63
2018-10-01T14:21:21.727Z,2.17
2018-10-01T14:23:54.299Z,2.60
2018-10-01T14:26:26.711Z,2.53
2018-10-01T14:28:59.137Z,2.33
2018-10-01T14:31:31.576Z,2.47
2018-10-01T14:34:03.980Z,2.63
2018-10-01T14:36:36.484Z,2.70
2018-10-01T14:39:08.827Z,2.23
2018-10-01T14:41:41.230Z,2.53
2018-10-01T14:44:13.627Z,2.57
2018-10-01T14:46:46.051Z,2.43
2018-10-01T14:49:18.446Z,2.70
2018-10-01T14:51:50.861Z,2.80
2018-10-01T14:54:23.284Z,3.23
2018-10-01T14:56:55.757Z,2.50
2018-10-01T14:59:28.077Z,2.53
2018-10-01T15:02:00.481Z,2.60
2018-10-01T15:04:32.873Z,3.03
2018-10-01T15:07:05.662Z,2.77
2018-10-01T15:09:38.058Z,2.83
2018-10-01T15:12:10.536Z,2.60
2018-10-01T15:14:42.882Z,2.53
2018-10-01T15:17:15.290Z,2.57
2018-10-01T15:19:47.701Z,2.13
2018-10-01T15:22:20.210Z,3.20
2018-10-01T15:24:52.534Z,2.40
2018-10-01T15:27:24.941Z,2.43
2018-10-01T15:29:57.403Z,2.50
2018-10-01T15:32:29.781Z,2.13
2018-10-01T15:35:02.226Z,1.90
2018-10-01T15:37:34.622Z,2.30
2018-10-01T15:40:07.033Z,2.17
2018-10-01T15:42:39.422Z,2.00
2018-10-01T15:45:11.843Z,1.90
2018-10-01T15:47:44.225Z,2.07
2018-10-01T15:50:16.632Z,1.90
2018-10-01T15:52:49.021Z,2.03
2018-10-01T15:55:21.435Z,1.70
2018-10-01T15:57:53.825Z,1.80
2018-10-01T16:00:26.245Z,1.70
2018-10-01T16:02:58.640Z,2.10
2018-10-01T16:05:31.046Z,2.20
2018-10-01T16:08:03.453Z,1.90
2018-10-01T16:10:35.863Z,2.03
2018-10-01T16:13:08.262Z,2.00
2018-10-01T16:15:40.674Z,2.00
2018-10-01T16:18:13.075Z,1.77
2018-10-01T16:20:45.472Z,1.50
2018-10-01T16:23:17.882Z,1.67
2018-10-01T16:25:50.286Z,1.63
2018-10-01T16:28:22.670Z,2.13
2018-10-01T16:30:55.091Z,1.77
2018-10-01T16:33:27.546Z,1.93
2018-10-01T16:35:59.986Z,1.57
2018-10-01T16:38:32.391Z,1.93
2018-10-01T16:41:05.722Z,1.93
2018-10-01T16:43:38.109Z,1.70
2018-10-01T16:46:10.519Z,1.80
2018-10-01T16:48:42.902Z,2.23
2018-10-01T16:51:15.337Z,1.90
2018-10-01T16:53:47.766Z,1.97
2018-10-01T16:56:20.157Z,2.27
2018-10-01T16:58:52.555Z,1.93
2018-10-01T17:01:24.965Z,2.13
2018-10-01T17:03:57.365Z,2.07
2018-10-01T17:06:29.782Z,1.87
2018-10-01T17:09:02.193Z,1.90
2018-10-01T17:11:34.605Z,2.00
2018-10-01T17:14:07.027Z,1.80
2018-10-01T17:16:39.449Z,1.83
2018-10-01T17:19:12.077Z,2.10
2018-10-01T17:21:44.519Z,2.00
2018-10-01T17:24:16.920Z,2.07
2018-10-01T17:26:49.337Z,2.30
2018-10-01T17:29:21.734Z,2.10
2018-10-01T17:31:54.147Z,1.90
2018-10-01T17:34:26.549Z,1.70
2018-10-01T17:36:59.007Z,1.77
2018-10-01T17:39:31.365Z,1.73
2018-10-01T17:42:03.781Z,1.70
2018-10-01T17:44:36.253Z,1.93
2018-10-01T17:47:08.675Z,2.00
2018-10-01T17:49:41.093Z,1.80
2018-10-01T17:52:13.527Z,1.90
2018-10-01T17:54:45.924Z,1.90
2018-10-01T17:57:18.347Z,1.80
2018-10-01T17:59:50.773Z,2.00
2018-10-01T18:02:23.170Z,1.63
2018-10-01T18:04:55.557Z,2.50
2018-10-01T18:07:27.970Z,2.20
2018-10-01T18:10:00.390Z,2.00
2018-10-01T18:12:33.122Z,2.13
2018-10-01T18:15:06.634Z,2.87
2018-10-01T18:17:39.061Z,2.23
2018-10-01T18:20:11.462Z,2.30
2018-10-01T18:22:43.973Z,2.50
2018-10-01T18:25:16.353Z,2.67
2018-10-01T18:27:49.038Z,2.23
2018-10-01T18:30:21.513Z,2.30
2018-10-01T18:32:53.872Z,2.20
2018-10-01T18:35:26.277Z,3.03
2018-10-01T18:37:58.690Z,2.83
2018-10-01T18:40:31.107Z,3.90
2018-10-01T18:43:03.755Z,2.57
2018-10-01T18:45:36.137Z,2.17
2018-10-01T18:48:08.565Z,2.83
2018-10-01T18:50:40.963Z,3.03
2018-10-01T18:53:13.418Z,2.90
2018-10-01T18:55:45.833Z,2.47
2018-10-01T18:58:18.281Z,2.90
2018-10-01T19:00:50.670Z,2.97
2018-10-01T19:03:23.090Z,3.17
2018-10-01T19:05:55.528Z,2.70
2018-10-01T19:08:27.902Z,2.77
2018-10-01T19:11:00.277Z,3.10
2018-10-01T19:13:32.708Z,3.10
2018-10-01T19:16:05.090Z,2.97
2018-10-01T19:18:37.494Z,2.30
2018-10-01T19:21:09.881Z,3.30
2018-10-01T19:23:42.437Z,3.10
2018-10-01T19:26:14.776Z,3.47
2018-10-01T19:28:47.216Z,3.43
2018-10-01T19:31:19.606Z,3.03
2018-10-01T19:33:52.013Z,2.97
2018-10-01T19:36:24.409Z,2.60
2018-10-01T19:38:56.876Z,2.60
2018-10-01T19:41:29.218Z,2.70
2018-10-01T19:44:01.613Z,2.50
2018-10-01T19:46:34.014Z,3.23
2018-10-01T19:49:06.417Z,2.73
2018-10-01T19:51:38.802Z,3.10
2018-10-01T19:54:11.218Z,3.30
2018-10-01T19:56:43.644Z,3.37
2018-10-01T19:59:16.105Z,2.70
2018-10-01T20:01:48.448Z,3.20
2018-10-01T20:04:20.859Z,3.10
2018-10-01T20:06:53.238Z,2.70
2018-10-01T20:09:25.643Z,3.37
2018-10-01T20:11:58.035Z,2.93
2018-10-01T20:14:30.576Z,2.63
2018-10-01T20:17:03.078Z,2.73
2018-10-01T20:19:35.385Z,2.73
2018-10-01T20:22:09.226Z,3.10
2018-10-01T20:24:41.717Z,2.80
2018-10-01T20:27:14.112Z,2.93
2018-10-01T20:29:46.578Z,3.23
2018-10-01T20:32:18.939Z,3.90
2018-10-01T20:34:51.779Z,2.87
2018-10-01T20:37:24.605Z,2.63
2018-10-01T20:39:57.493Z,2.70
2018-10-01T20:42:29.899Z,2.80
2018-10-01T20:45:02.500Z,2.47
2018-10-01T20:47:35.123Z,3.30
2018-10-01T20:50:07.682Z,3.07
